sensor_id;sensor_type;location;lat;lon;timestamp;temperature;humidity
33827;DHT22;20128;45.582;5.298;2023-03-11T00:00:39;12.20;82.60
33827;DHT22;20128;45.582;5.298;2023-03-11T00:03:07;12.20;80.80
33827;DHT22;20128;45.582;5.298;2023-03-11T00:05:37;12.10;81.00
33827;DHT22;20128;45.582;5.298;2023-03-11T00:08:05;12.00;81.60
33827;DHT22;20128;45.582;5.298;2023-03-11T00:10:35;11.90;81.10
33827;DHT22;20128;45.582;5.298;2023-03-11T00:13:02;11.80;81.40
33827;DHT22;20128;45.582;5.298;2023-03-11T00:15:28;11.80;82.30
33827;DHT22;20128;45.582;5.298;2023-03-11T00:17:54;11.80;83.20
33827;DHT22;20128;45.582;5.298;2023-03-11T00:20:29;11.90;83.60
33827;DHT22;20128;45.582;5.298;2023-03-11T00:22:55;12.00;83.70
33827;DHT22;20128;45.582;5.298;2023-03-11T00:25:23;12.00;83.70
33827;DHT22;20128;45.582;5.298;2023-03-11T00:27:49;12.10;84.00
33827;DHT22;20128;45.582;5.298;2023-03-11T00:30:16;12.10;84.00
33827;DHT22;20128;45.582;5.298;2023-03-11T00:32:42;12.10;84.10
33827;DHT22;20128;45.582;5.298;2023-03-11T00:35:12;12.10;83.40
33827;DHT22;20128;45.582;5.298;2023-03-11T00:37:38;12.10;83.90
33827;DHT22;20128;45.582;5.298;2023-03-11T00:40:04;12.10;84.00
33827;DHT22;20128;45.582;5.298;2023-03-11T00:42:33;12.20;84.40
33827;DHT22;20128;45.582;5.298;2023-03-11T00:44:59;12.20;84.60
33827;DHT22;20128;45.582;5.298;2023-03-11T00:47:24;12.20;84.60
33827;DHT22;20128;45.582;5.298;2023-03-11T00:49:50;12.20;84.60
33827;DHT22;20128;45.582;5.298;2023-03-11T00:52:16;12.20;84.40
33827;DHT22;20128;45.582;5.298;2023-03-11T00:54:41;12.10;84.80
33827;DHT22;20128;45.582;5.298;2023-03-11T00:57:07;12.10;84.70
33827;DHT22;20128;45.582;5.298;2023-03-11T00:59:34;12.10;84.70
33827;DHT22;20128;45.582;5.298;2023-03-11T01:01:59;12.10;84.60
33827;DHT22;20128;45.582;5.298;2023-03-11T01:04:25;12.00;84.00
33827;DHT22;20128;45.582;5.298;2023-03-11T01:06:50;11.90;84.20
33827;DHT22;20128;45.582;5.298;2023-03-11T01:09:16;11.90;84.10
33827;DHT22;20128;45.582;5.298;2023-03-11T01:11:42;11.90;84.20
33827;DHT22;20128;45.582;5.298;2023-03-11T01:14:08;11.80;84.10
33827;DHT22;20128;45.582;5.298;2023-03-11T01:16:34;11.80;84.40
33827;DHT22;20128;45.582;5.298;2023-03-11T01:18:59;11.80;82.10
33827;DHT22;20128;45.582;5.298;2023-03-11T01:21:25;11.70;82.30
33827;DHT22;20128;45.582;5.298;2023-03-11T01:23:51;11.40;82.50
33827;DHT22;20128;45.582;5.298;2023-03-11T01:26:16;11.30;82.50
33827;DHT22;20128;45.582;5.298;2023-03-11T01:28:42;11.20;82.60
33827;DHT22;20128;45.582;5.298;2023-03-11T01:31:09;11.10;82.90
33827;DHT22;20128;45.582;5.298;2023-03-11T01:33:35;11.00;83.00
33827;DHT22;20128;45.582;5.298;2023-03-11T01:36:00;10.80;83.00
33827;DHT22;20128;45.582;5.298;2023-03-11T01:38:26;10.70;83.10
33827;DHT22;20128;45.582;5.298;2023-03-11T01:40:52;10.50;83.90
33827;DHT22;20128;45.582;5.298;2023-03-11T01:46:18;10.70;84.60
33827;DHT22;20128;45.582;5.298;2023-03-11T01:48:48;10.80;84.70
33827;DHT22;20128;45.582;5.298;2023-03-11T01:51:17;10.90;85.50
33827;DHT22;20128;45.582;5.298;2023-03-11T01:53:44;11.00;84.50
33827;DHT22;20128;45.582;5.298;2023-03-11T01:56:10;11.00;84.20
33827;DHT22;20128;45.582;5.298;2023-03-11T01:58:38;11.00;83.40
33827;DHT22;20128;45.582;5.298;2023-03-11T02:01:06;11.00;84.20
33827;DHT22;20128;45.582;5.298;2023-03-11T02:03:36;10.90;84.00
33827;DHT22;20128;45.582;5.298;2023-03-11T02:06:05;10.80;83.50
33827;DHT22;20128;45.582;5.298;2023-03-11T02:08:32;10.70;84.10
33827;DHT22;20128;45.582;5.298;2023-03-11T02:11:03;10.70;83.80
33827;DHT22;20128;45.582;5.298;2023-03-11T02:13:31;10.70;84.60
33827;DHT22;20128;45.582;5.298;2023-03-11T02:16:00;10.70;84.90
33827;DHT22;20128;45.582;5.298;2023-03-11T02:18:26;10.80;85.50
33827;DHT22;20128;45.582;5.298;2023-03-11T02:21:29;10.90;85.20
33827;DHT22;20128;45.582;5.298;2023-03-11T02:23:57;11.00;85.60
33827;DHT22;20128;45.582;5.298;2023-03-11T02:28:56;11.30;86.60
33827;DHT22;20128;45.582;5.298;2023-03-11T02:31:23;11.40;86.70
33827;DHT22;20128;45.582;5.298;2023-03-11T02:33:52;11.40;86.80
33827;DHT22;20128;45.582;5.298;2023-03-11T02:36:36;11.50;86.40
33827;DHT22;20128;45.582;5.298;2023-03-11T02:39:03;11.50;84.70
33827;DHT22;20128;45.582;5.298;2023-03-11T02:41:31;11.40;84.00
33827;DHT22;20128;45.582;5.298;2023-03-11T02:43:58;11.40;84.70
33827;DHT22;20128;45.582;5.298;2023-03-11T02:46:24;11.50;85.70
33827;DHT22;20128;45.582;5.298;2023-03-11T02:48:51;11.50;86.30
33827;DHT22;20128;45.582;5.298;2023-03-11T02:51:17;11.60;86.70
33827;DHT22;20128;45.582;5.298;2023-03-11T02:53:48;11.60;86.80
33827;DHT22;20128;45.582;5.298;2023-03-11T02:56:15;11.60;87.00
33827;DHT22;20128;45.582;5.298;2023-03-11T02:58:40;11.70;86.90
33827;DHT22;20128;45.582;5.298;2023-03-11T03:01:06;11.70;87.10
33827;DHT22;20128;45.582;5.298;2023-03-11T03:03:32;11.70;87.10
33827;DHT22;20128;45.582;5.298;2023-03-11T03:05:57;11.70;87.00
33827;DHT22;20128;45.582;5.298;2023-03-11T03:08:23;11.70;87.00
33827;DHT22;20128;45.582;5.298;2023-03-11T03:10:50;11.70;86.40
33827;DHT22;20128;45.582;5.298;2023-03-11T03:13:15;11.70;86.90
33827;DHT22;20128;45.582;5.298;2023-03-11T03:15:41;11.80;87.20
33827;DHT22;20128;45.582;5.298;2023-03-11T03:18:07;11.80;87.40
33827;DHT22;20128;45.582;5.298;2023-03-11T03:20:32;11.80;86.80
33827;DHT22;20128;45.582;5.298;2023-03-11T03:22:58;11.80;86.40
33827;DHT22;20128;45.582;5.298;2023-03-11T03:25:23;11.80;87.10
33827;DHT22;20128;45.582;5.298;2023-03-11T03:27:49;11.80;87.30
33827;DHT22;20128;45.582;5.298;2023-03-11T03:30:15;11.90;87.60
33827;DHT22;20128;45.582;5.298;2023-03-11T03:32:41;11.90;87.50
33827;DHT22;20128;45.582;5.298;2023-03-11T03:35:07;11.80;87.00
33827;DHT22;20128;45.582;5.298;2023-03-11T03:37:34;11.90;87.30
33827;DHT22;20128;45.582;5.298;2023-03-11T03:40:00;11.80;87.10
33827;DHT22;20128;45.582;5.298;2023-03-11T03:42:27;11.80;85.00
33827;DHT22;20128;45.582;5.298;2023-03-11T03:44:52;11.70;85.20
33827;DHT22;20128;45.582;5.298;2023-03-11T03:47:18;11.60;86.20
33827;DHT22;20128;45.582;5.298;2023-03-11T03:49:44;11.60;86.70
33827;DHT22;20128;45.582;5.298;2023-03-11T03:52:10;11.60;87.00
33827;DHT22;20128;45.582;5.298;2023-03-11T03:54:36;11.60;85.10
33827;DHT22;20128;45.582;5.298;2023-03-11T03:57:02;11.50;85.60
33827;DHT22;20128;45.582;5.298;2023-03-11T03:59:28;11.50;86.70
33827;DHT22;20128;45.582;5.298;2023-03-11T04:01:54;11.50;87.30
33827;DHT22;20128;45.582;5.298;2023-03-11T04:04:20;11.60;87.50
33827;DHT22;20128;45.582;5.298;2023-03-11T04:06:46;11.60;86.20
33827;DHT22;20128;45.582;5.298;2023-03-11T04:09:11;11.50;86.80
33827;DHT22;20128;45.582;5.298;2023-03-11T04:11:37;11.60;87.50
33827;DHT22;20128;45.582;5.298;2023-03-11T04:14:04;11.60;87.20
33827;DHT22;20128;45.582;5.298;2023-03-11T04:16:30;11.60;87.40
33827;DHT22;20128;45.582;5.298;2023-03-11T04:18:55;11.50;87.80
33827;DHT22;20128;45.582;5.298;2023-03-11T04:21:21;11.50;87.90
33827;DHT22;20128;45.582;5.298;2023-03-11T04:23:47;11.60;87.30
33827;DHT22;20128;45.582;5.298;2023-03-11T04:26:12;11.50;87.00
33827;DHT22;20128;45.582;5.298;2023-03-11T04:28:38;11.50;87.30
33827;DHT22;20128;45.582;5.298;2023-03-11T04:31:04;11.50;88.10
33827;DHT22;20128;45.582;5.298;2023-03-11T04:33:30;11.60;88.40
33827;DHT22;20128;45.582;5.298;2023-03-11T04:35:56;11.60;88.60
33827;DHT22;20128;45.582;5.298;2023-03-11T04:38:22;11.60;89.10
33827;DHT22;20128;45.582;5.298;2023-03-11T04:40:48;11.70;89.40
33827;DHT22;20128;45.582;5.298;2023-03-11T04:43:13;11.70;88.10
33827;DHT22;20128;45.582;5.298;2023-03-11T04:45:39;11.70;87.90
33827;DHT22;20128;45.582;5.298;2023-03-11T04:48:07;11.60;88.20
33827;DHT22;20128;45.582;5.298;2023-03-11T04:50:33;11.60;88.40
33827;DHT22;20128;45.582;5.298;2023-03-11T04:52:58;11.50;87.60
33827;DHT22;20128;45.582;5.298;2023-03-11T04:55:24;11.50;87.80
33827;DHT22;20128;45.582;5.298;2023-03-11T04:57:50;11.40;88.00
33827;DHT22;20128;45.582;5.298;2023-03-11T05:00:15;11.40;88.30
33827;DHT22;20128;45.582;5.298;2023-03-11T05:02:44;11.30;88.40
33827;DHT22;20128;45.582;5.298;2023-03-11T05:05:10;11.30;88.90
33827;DHT22;20128;45.582;5.298;2023-03-11T05:07:36;11.30;89.70
33827;DHT22;20128;45.582;5.298;2023-03-11T05:10:03;11.30;90.00
33827;DHT22;20128;45.582;5.298;2023-03-11T05:12:29;11.30;90.00
33827;DHT22;20128;45.582;5.298;2023-03-11T05:14:54;11.40;90.20
33827;DHT22;20128;45.582;5.298;2023-03-11T05:17:20;11.50;90.20
33827;DHT22;20128;45.582;5.298;2023-03-11T05:19:46;11.60;90.00
33827;DHT22;20128;45.582;5.298;2023-03-11T05:22:11;11.60;90.00
33827;DHT22;20128;45.582;5.298;2023-03-11T05:24:37;11.60;89.60
33827;DHT22;20128;45.582;5.298;2023-03-11T05:27:03;11.60;89.50
33827;DHT22;20128;45.582;5.298;2023-03-11T05:29:31;11.60;89.60
33827;DHT22;20128;45.582;5.298;2023-03-11T05:31:56;11.50;89.00
33827;DHT22;20128;45.582;5.298;2023-03-11T05:34:22;11.50;88.70
33827;DHT22;20128;45.582;5.298;2023-03-11T05:36:47;11.40;87.60
33827;DHT22;20128;45.582;5.298;2023-03-11T05:39:13;11.30;88.20
33827;DHT22;20128;45.582;5.298;2023-03-11T05:41:39;11.40;89.40
33827;DHT22;20128;45.582;5.298;2023-03-11T05:44:05;11.40;90.00
33827;DHT22;20128;45.582;5.298;2023-03-11T05:46:30;11.40;90.20
33827;DHT22;20128;45.582;5.298;2023-03-11T05:48:58;11.50;90.20
33827;DHT22;20128;45.582;5.298;2023-03-11T05:51:24;11.50;90.20
33827;DHT22;20128;45.582;5.298;2023-03-11T05:53:49;11.50;90.10
33827;DHT22;20128;45.582;5.298;2023-03-11T05:56:16;11.40;89.30
33827;DHT22;20128;45.582;5.298;2023-03-11T05:58:43;11.40;88.80
33827;DHT22;20128;45.582;5.298;2023-03-11T06:01:13;11.40;89.40
33827;DHT22;20128;45.582;5.298;2023-03-11T06:03:40;11.30;89.50
33827;DHT22;20128;45.582;5.298;2023-03-11T06:06:07;11.20;89.60
33827;DHT22;20128;45.582;5.298;2023-03-11T06:08:34;11.20;88.50
33827;DHT22;20128;45.582;5.298;2023-03-11T06:11:05;11.10;88.00
33827;DHT22;20128;45.582;5.298;2023-03-11T06:13:31;11.00;88.40
33827;DHT22;20128;45.582;5.298;2023-03-11T06:15:57;10.80;88.50
33827;DHT22;20128;45.582;5.298;2023-03-11T06:18:23;10.70;89.10
33827;DHT22;20128;45.582;5.298;2023-03-11T06:20:51;10.60;89.30
33827;DHT22;20128;45.582;5.298;2023-03-11T06:23:18;10.50;89.90
33827;DHT22;20128;45.582;5.298;2023-03-11T06:25:43;10.40;90.10
33827;DHT22;20128;45.582;5.298;2023-03-11T06:28:09;10.30;90.50
33827;DHT22;20128;45.582;5.298;2023-03-11T06:30:35;10.20;90.70
33827;DHT22;20128;45.582;5.298;2023-03-11T06:33:01;10.20;90.80
33827;DHT22;20128;45.582;5.298;2023-03-11T06:35:26;10.10;90.90
33827;DHT22;20128;45.582;5.298;2023-03-11T06:37:52;10.10;91.10
33827;DHT22;20128;45.582;5.298;2023-03-11T06:40:18;10.10;91.10
33827;DHT22;20128;45.582;5.298;2023-03-11T06:42:46;10.00;91.20
33827;DHT22;20128;45.582;5.298;2023-03-11T06:45:12;10.00;91.00
33827;DHT22;20128;45.582;5.298;2023-03-11T06:47:38;10.00;91.30
33827;DHT22;20128;45.582;5.298;2023-03-11T06:50:05;10.00;91.40
33827;DHT22;20128;45.582;5.298;2023-03-11T06:52:33;10.00;91.20
33827;DHT22;20128;45.582;5.298;2023-03-11T06:54:59;9.90;91.30
33827;DHT22;20128;45.582;5.298;2023-03-11T06:57:25;10.00;91.40
33827;DHT22;20128;45.582;5.298;2023-03-11T06:59:52;9.90;91.50
33827;DHT22;20128;45.582;5.298;2023-03-11T07:02:17;9.90;91.80
33827;DHT22;20128;45.582;5.298;2023-03-11T07:04:43;9.80;91.80
33827;DHT22;20128;45.582;5.298;2023-03-11T07:07:09;9.90;91.70
33827;DHT22;20128;45.582;5.298;2023-03-11T07:09:34;9.90;91.90
33827;DHT22;20128;45.582;5.298;2023-03-11T07:12:00;10.00;92.20
33827;DHT22;20128;45.582;5.298;2023-03-11T07:14:25;10.10;92.10
33827;DHT22;20128;45.582;5.298;2023-03-11T07:16:51;10.10;92.20
33827;DHT22;20128;45.582;5.298;2023-03-11T07:19:17;10.20;92.10
33827;DHT22;20128;45.582;5.298;2023-03-11T07:21:43;10.30;91.90
33827;DHT22;20128;45.582;5.298;2023-03-11T07:24:11;10.40;92.10
33827;DHT22;20128;45.582;5.298;2023-03-11T07:26:38;10.40;92.10
33827;DHT22;20128;45.582;5.298;2023-03-11T07:29:04;10.50;92.40
33827;DHT22;20128;45.582;5.298;2023-03-11T07:31:32;10.60;92.50
33827;DHT22;20128;45.582;5.298;2023-03-11T07:34:01;10.80;92.10
33827;DHT22;20128;45.582;5.298;2023-03-11T07:36:27;10.80;92.20
33827;DHT22;20128;45.582;5.298;2023-03-11T07:38:58;10.90;92.30
33827;DHT22;20128;45.582;5.298;2023-03-11T07:41:25;11.00;92.20
33827;DHT22;20128;45.582;5.298;2023-03-11T07:43:56;11.10;92.30
33827;DHT22;20128;45.582;5.298;2023-03-11T07:46:23;11.20;92.00
33827;DHT22;20128;45.582;5.298;2023-03-11T07:48:50;11.20;91.90
33827;DHT22;20128;45.582;5.298;2023-03-11T07:51:25;11.20;91.70
33827;DHT22;20128;45.582;5.298;2023-03-11T07:53:53;11.10;91.60
33827;DHT22;20128;45.582;5.298;2023-03-11T07:56:20;11.10;91.70
33827;DHT22;20128;45.582;5.298;2023-03-11T07:58:51;11.20;91.90
33827;DHT22;20128;45.582;5.298;2023-03-11T08:01:21;11.30;91.90
33827;DHT22;20128;45.582;5.298;2023-03-11T08:03:49;11.40;92.20
33827;DHT22;20128;45.582;5.298;2023-03-11T08:06:20;11.50;92.10
33827;DHT22;20128;45.582;5.298;2023-03-11T08:08:48;11.50;91.90
33827;DHT22;20128;45.582;5.298;2023-03-11T08:11:14;11.50;92.10
33827;DHT22;20128;45.582;5.298;2023-03-11T08:13:41;11.50;92.10
33827;DHT22;20128;45.582;5.298;2023-03-11T08:16:09;11.60;92.10
33827;DHT22;20128;45.582;5.298;2023-03-11T08:18:34;11.60;91.90
33827;DHT22;20128;45.582;5.298;2023-03-11T08:21:07;11.60;91.90
33827;DHT22;20128;45.582;5.298;2023-03-11T08:23:33;11.70;91.90
33827;DHT22;20128;45.582;5.298;2023-03-11T08:26:04;11.70;92.00
33827;DHT22;20128;45.582;5.298;2023-03-11T08:28:30;11.70;91.80
33827;DHT22;20128;45.582;5.298;2023-03-11T08:30:55;11.70;91.70
33827;DHT22;20128;45.582;5.298;2023-03-11T08:33:21;11.70;91.90
33827;DHT22;20128;45.582;5.298;2023-03-11T08:35:47;11.70;92.00
33827;DHT22;20128;45.582;5.298;2023-03-11T08:38:12;11.90;91.90
33827;DHT22;20128;45.582;5.298;2023-03-11T08:40:38;12.00;91.60
33827;DHT22;20128;45.582;5.298;2023-03-11T08:43:03;11.90;91.30
33827;DHT22;20128;45.582;5.298;2023-03-11T08:45:29;12.00;91.10
33827;DHT22;20128;45.582;5.298;2023-03-11T08:47:55;12.00;91.00
33827;DHT22;20128;45.582;5.298;2023-03-11T08:50:21;12.10;90.90
33827;DHT22;20128;45.582;5.298;2023-03-11T08:52:46;12.00;90.60
33827;DHT22;20128;45.582;5.298;2023-03-11T08:55:14;12.00;90.70
33827;DHT22;20128;45.582;5.298;2023-03-11T08:57:42;11.90;90.40
33827;DHT22;20128;45.582;5.298;2023-03-11T09:00:08;11.90;90.50
33827;DHT22;20128;45.582;5.298;2023-03-11T09:02:34;11.80;90.40
33827;DHT22;20128;45.582;5.298;2023-03-11T09:05:00;11.80;90.60
33827;DHT22;20128;45.582;5.298;2023-03-11T09:07:26;11.80;90.60
33827;DHT22;20128;45.582;5.298;2023-03-11T09:09:51;11.80;90.70
33827;DHT22;20128;45.582;5.298;2023-03-11T09:12:19;11.70;90.70
33827;DHT22;20128;45.582;5.298;2023-03-11T09:14:45;11.70;90.50
33827;DHT22;20128;45.582;5.298;2023-03-11T09:17:10;11.70;90.60
33827;DHT22;20128;45.582;5.298;2023-03-11T09:19:36;11.70;90.80
33827;DHT22;20128;45.582;5.298;2023-03-11T09:22:03;11.70;90.80
33827;DHT22;20128;45.582;5.298;2023-03-11T09:24:32;11.70;90.80
33827;DHT22;20128;45.582;5.298;2023-03-11T09:26:57;11.70;90.90
33827;DHT22;20128;45.582;5.298;2023-03-11T09:29:23;11.70;91.10
33827;DHT22;20128;45.582;5.298;2023-03-11T09:31:49;11.80;91.20
33827;DHT22;20128;45.582;5.298;2023-03-11T09:34:14;11.80;91.10
33827;DHT22;20128;45.582;5.298;2023-03-11T09:36:41;11.80;91.10
33827;DHT22;20128;45.582;5.298;2023-03-11T09:39:07;11.90;91.10
33827;DHT22;20128;45.582;5.298;2023-03-11T09:44:40;11.90;91.20
33827;DHT22;20128;45.582;5.298;2023-03-11T09:47:39;12.10;91.20
33827;DHT22;20128;45.582;5.298;2023-03-11T09:50:15;12.30;91.00
33827;DHT22;20128;45.582;5.298;2023-03-11T09:52:53;12.30;90.70
33827;DHT22;20128;45.582;5.298;2023-03-11T09:58:01;12.40;90.50
33827;DHT22;20128;45.582;5.298;2023-03-11T10:00:29;12.40;90.30
33827;DHT22;20128;45.582;5.298;2023-03-11T10:02:57;12.40;90.30
33827;DHT22;20128;45.582;5.298;2023-03-11T10:05:25;12.40;90.20
33827;DHT22;20128;45.582;5.298;2023-03-11T10:08:18;12.40;90.20
33827;DHT22;20128;45.582;5.298;2023-03-11T10:10:53;12.50;90.20
33827;DHT22;20128;45.582;5.298;2023-03-11T10:13:25;12.50;89.80
33827;DHT22;20128;45.582;5.298;2023-03-11T10:16:23;12.50;89.70
33827;DHT22;20128;45.582;5.298;2023-03-11T10:27:25;12.60;90.00
33827;DHT22;20128;45.582;5.298;2023-03-11T10:30:05;12.60;89.90
33827;DHT22;20128;45.582;5.298;2023-03-11T10:38:04;12.60;90.10
33827;DHT22;20128;45.582;5.298;2023-03-11T10:40:34;12.50;90.20
33827;DHT22;20128;45.582;5.298;2023-03-11T10:43:11;12.50;90.20
33827;DHT22;20128;45.582;5.298;2023-03-11T10:45:41;12.50;90.20
33827;DHT22;20128;45.582;5.298;2023-03-11T10:48:17;12.50;90.30
33827;DHT22;20128;45.582;5.298;2023-03-11T10:50:48;12.50;90.40
33827;DHT22;20128;45.582;5.298;2023-03-11T10:53:17;12.50;90.20
33827;DHT22;20128;45.582;5.298;2023-03-11T10:55:54;12.40;90.30
33827;DHT22;20128;45.582;5.298;2023-03-11T10:58:26;12.40;90.50
33827;DHT22;20128;45.582;5.298;2023-03-11T11:01:16;12.40;90.60
33827;DHT22;20128;45.582;5.298;2023-03-11T11:03:46;12.40;90.90
33827;DHT22;20128;45.582;5.298;2023-03-11T11:06:32;12.40;91.10
33827;DHT22;20128;45.582;5.298;2023-03-11T11:11:41;12.40;91.10
33827;DHT22;20128;45.582;5.298;2023-03-11T11:14:07;12.40;91.10
33827;DHT22;20128;45.582;5.298;2023-03-11T11:16:35;12.40;91.30
33827;DHT22;20128;45.582;5.298;2023-03-11T11:19:12;12.40;91.20
33827;DHT22;20128;45.582;5.298;2023-03-11T11:21:42;12.50;91.40
33827;DHT22;20128;45.582;5.298;2023-03-11T11:24:27;12.50;91.50
33827;DHT22;20128;45.582;5.298;2023-03-11T11:29:42;12.60;91.50
33827;DHT22;20128;45.582;5.298;2023-03-11T11:32:33;12.60;91.40
33827;DHT22;20128;45.582;5.298;2023-03-11T11:37:29;12.70;91.30
33827;DHT22;20128;45.582;5.298;2023-03-11T11:40:29;12.70;91.00
33827;DHT22;20128;45.582;5.298;2023-03-11T11:47:56;12.70;90.60
33827;DHT22;20128;45.582;5.298;2023-03-11T11:53:24;12.70;91.10
33827;DHT22;20128;45.582;5.298;2023-03-11T11:55:51;12.60;90.90
33827;DHT22;20128;45.582;5.298;2023-03-11T11:58:19;12.70;91.00
33827;DHT22;20128;45.582;5.298;2023-03-11T12:00:57;12.70;90.90
33827;DHT22;20128;45.582;5.298;2023-03-11T12:06:19;12.60;91.50
33827;DHT22;20128;45.582;5.298;2023-03-11T12:11:49;12.70;91.50
33827;DHT22;20128;45.582;5.298;2023-03-11T12:14:32;12.70;91.50
33827;DHT22;20128;45.582;5.298;2023-03-11T12:17:00;12.80;91.50
33827;DHT22;20128;45.582;5.298;2023-03-11T12:20:21;12.80;91.40
33827;DHT22;20128;45.582;5.298;2023-03-11T12:23:44;12.80;91.00
33827;DHT22;20128;45.582;5.298;2023-03-11T12:25:56;12.80;90.90
33827;DHT22;20128;45.582;5.298;2023-03-11T12:28:46;12.80;90.90
33827;DHT22;20128;45.582;5.298;2023-03-11T12:31:14;12.70;91.10
33827;DHT22;20128;45.582;5.298;2023-03-11T12:33:58;12.80;91.00
33827;DHT22;20128;45.582;5.298;2023-03-11T12:36:35;12.80;90.90
33827;DHT22;20128;45.582;5.298;2023-03-11T12:39:06;12.80;90.70
33827;DHT22;20128;45.582;5.298;2023-03-11T12:41:33;12.80;90.70
33827;DHT22;20128;45.582;5.298;2023-03-11T12:44:37;12.80;90.80
33827;DHT22;20128;45.582;5.298;2023-03-11T12:47:25;12.80;91.10
33827;DHT22;20128;45.582;5.298;2023-03-11T12:49:55;12.90;91.00
33827;DHT22;20128;45.582;5.298;2023-03-11T12:52:53;12.90;90.90
33827;DHT22;20128;45.582;5.298;2023-03-11T12:55:27;12.80;90.70
33827;DHT22;20128;45.582;5.298;2023-03-11T12:58:01;12.90;90.70
33827;DHT22;20128;45.582;5.298;2023-03-11T13:00:45;12.90;90.50
33827;DHT22;20128;45.582;5.298;2023-03-11T13:03:30;12.90;90.40
33827;DHT22;20128;45.582;5.298;2023-03-11T13:08:52;12.90;90.50
33827;DHT22;20128;45.582;5.298;2023-03-11T13:16:49;12.80;90.10
33827;DHT22;20128;45.582;5.298;2023-03-11T13:21:54;12.70;90.20
33827;DHT22;20128;45.582;5.298;2023-03-11T13:27:04;12.80;90.40
33827;DHT22;20128;45.582;5.298;2023-03-11T13:29:55;12.80;90.60
33827;DHT22;20128;45.582;5.298;2023-03-11T13:41:29;12.90;90.70
33827;DHT22;20128;45.582;5.298;2023-03-11T13:44:02;12.90;90.70
33827;DHT22;20128;45.582;5.298;2023-03-11T13:46:35;13.00;90.00
33827;DHT22;20128;45.582;5.298;2023-03-11T13:49:13;13.00;89.80
33827;DHT22;20128;45.582;5.298;2023-03-11T13:51:44;13.00;89.40
33827;DHT22;20128;45.582;5.298;2023-03-11T13:54:28;13.00;89.40
33827;DHT22;20128;45.582;5.298;2023-03-11T13:57:00;13.00;90.10
33827;DHT22;20128;45.582;5.298;2023-03-11T13:59:29;13.00;90.20
33827;DHT22;20128;45.582;5.298;2023-03-11T14:04:47;13.00;90.00
33827;DHT22;20128;45.582;5.298;2023-03-11T14:07:26;13.00;89.80
33827;DHT22;20128;45.582;5.298;2023-03-11T14:10:22;13.00;89.20
33827;DHT22;20128;45.582;5.298;2023-03-11T14:12:48;13.00;89.10
33827;DHT22;20128;45.582;5.298;2023-03-11T14:15:19;13.00;89.50
33827;DHT22;20128;45.582;5.298;2023-03-11T14:17:45;13.00;89.60
33827;DHT22;20128;45.582;5.298;2023-03-11T14:20:19;12.90;89.30
33827;DHT22;20128;45.582;5.298;2023-03-11T14:22:50;12.90;88.90
33827;DHT22;20128;45.582;5.298;2023-03-11T14:25:21;12.90;89.20
33827;DHT22;20128;45.582;5.298;2023-03-11T14:27:54;12.90;88.90
33827;DHT22;20128;45.582;5.298;2023-03-11T14:30:25;12.90;89.20
33827;DHT22;20128;45.582;5.298;2023-03-11T14:33:17;12.90;89.50
33827;DHT22;20128;45.582;5.298;2023-03-11T14:35:59;12.90;90.00
33827;DHT22;20128;45.582;5.298;2023-03-11T14:38:28;13.00;89.50
33827;DHT22;20128;45.582;5.298;2023-03-11T14:40:59;13.00;89.60
33827;DHT22;20128;45.582;5.298;2023-03-11T14:43:29;13.00;89.60
33827;DHT22;20128;45.582;5.298;2023-03-11T14:45:57;13.10;89.80
33827;DHT22;20128;45.582;5.298;2023-03-11T14:48:47;13.10;88.80
33827;DHT22;20128;45.582;5.298;2023-03-11T14:51:20;13.10;88.60
33827;DHT22;20128;45.582;5.298;2023-03-11T14:54:02;13.10;89.00
33827;DHT22;20128;45.582;5.298;2023-03-11T14:56:30;13.20;89.10
33827;DHT22;20128;45.582;5.298;2023-03-11T14:59:03;13.10;89.00
33827;DHT22;20128;45.582;5.298;2023-03-11T15:01:37;13.10;88.60
33827;DHT22;20128;45.582;5.298;2023-03-11T15:04:07;13.10;88.70
33827;DHT22;20128;45.582;5.298;2023-03-11T15:06:41;13.10;88.70
33827;DHT22;20128;45.582;5.298;2023-03-11T15:09:12;13.10;88.90
33827;DHT22;20128;45.582;5.298;2023-03-11T15:11:53;13.10;89.10
33827;DHT22;20128;45.582;5.298;2023-03-11T15:14:25;13.20;89.10
33827;DHT22;20128;45.582;5.298;2023-03-11T15:16:52;13.20;89.00
33827;DHT22;20128;45.582;5.298;2023-03-11T15:21:50;13.20;88.90
33827;DHT22;20128;45.582;5.298;2023-03-11T15:24:22;13.20;89.00
33827;DHT22;20128;45.582;5.298;2023-03-11T15:27:04;13.20;89.10
33827;DHT22;20128;45.582;5.298;2023-03-11T15:29:31;13.10;89.70
33827;DHT22;20128;45.582;5.298;2023-03-11T15:31:58;13.10;89.40
33827;DHT22;20128;45.582;5.298;2023-03-11T15:34:29;13.20;89.40
33827;DHT22;20128;45.582;5.298;2023-03-11T15:37:14;13.20;88.80
33827;DHT22;20128;45.582;5.298;2023-03-11T15:39:43;13.20;88.90
33827;DHT22;20128;45.582;5.298;2023-03-11T15:42:16;13.20;88.70
33827;DHT22;20128;45.582;5.298;2023-03-11T15:45:02;13.20;89.30
33827;DHT22;20128;45.582;5.298;2023-03-11T15:47:29;13.10;89.80
33827;DHT22;20128;45.582;5.298;2023-03-11T15:49:55;13.10;89.50
33827;DHT22;20128;45.582;5.298;2023-03-11T15:52:21;13.10;89.80
33827;DHT22;20128;45.582;5.298;2023-03-11T15:54:47;13.10;90.00
33827;DHT22;20128;45.582;5.298;2023-03-11T15:57:31;13.10;90.20
33827;DHT22;20128;45.582;5.298;2023-03-11T15:59:57;13.10;90.50
33827;DHT22;20128;45.582;5.298;2023-03-11T16:02:30;13.20;90.50
33827;DHT22;20128;45.582;5.298;2023-03-11T16:04:56;13.20;90.20
33827;DHT22;20128;45.582;5.298;2023-03-11T16:07:22;13.20;90.20
33827;DHT22;20128;45.582;5.298;2023-03-11T16:09:48;13.20;90.20
33827;DHT22;20128;45.582;5.298;2023-03-11T16:12:20;13.20;90.30
33827;DHT22;20128;45.582;5.298;2023-03-11T16:14:47;13.20;90.30
33827;DHT22;20128;45.582;5.298;2023-03-11T16:17:14;13.20;90.30
33827;DHT22;20128;45.582;5.298;2023-03-11T16:19:41;13.20;90.30
33827;DHT22;20128;45.582;5.298;2023-03-11T16:22:16;13.20;90.30
33827;DHT22;20128;45.582;5.298;2023-03-11T16:24:44;13.20;90.10
33827;DHT22;20128;45.582;5.298;2023-03-11T16:27:13;13.20;90.10
33827;DHT22;20128;45.582;5.298;2023-03-11T16:29:39;13.20;90.10
33827;DHT22;20128;45.582;5.298;2023-03-11T16:32:05;13.20;90.00
33827;DHT22;20128;45.582;5.298;2023-03-11T16:34:31;13.20;90.00
33827;DHT22;20128;45.582;5.298;2023-03-11T16:36:56;13.10;90.00
33827;DHT22;20128;45.582;5.298;2023-03-11T16:39:22;13.10;90.00
33827;DHT22;20128;45.582;5.298;2023-03-11T16:41:48;13.10;90.10
33827;DHT22;20128;45.582;5.298;2023-03-11T16:44:13;13.00;90.10
33827;DHT22;20128;45.582;5.298;2023-03-11T16:46:39;13.00;90.20
33827;DHT22;20128;45.582;5.298;2023-03-11T16:49:05;12.90;90.30
33827;DHT22;20128;45.582;5.298;2023-03-11T16:51:31;12.90;90.30
33827;DHT22;20128;45.582;5.298;2023-03-11T16:53:57;12.90;90.30
33827;DHT22;20128;45.582;5.298;2023-03-11T16:56:22;12.90;90.30
33827;DHT22;20128;45.582;5.298;2023-03-11T16:58:48;12.90;90.50